createdAt,value
2022-11-26T00:00:52.350Z,5.21
2022-11-26T00:01:52.408Z,5.21
2022-11-26T00:02:52.422Z,5.20
2022-11-26T00:03:52.313Z,5.21
2022-11-26T00:04:52.327Z,5.20
2022-11-26T00:05:52.329Z,5.20
2022-11-26T00:06:52.318Z,5.20
2022-11-26T00:07:52.348Z,5.21
2022-11-26T00:08:52.264Z,5.21
2022-11-26T00:09:52.267Z,5.21
2022-11-26T00:10:52.233Z,5.20
2022-11-26T00:11:52.323Z,5.20
2022-11-26T00:12:55.217Z,5.18
2022-11-26T00:13:52.252Z,5.17
2022-11-26T00:14:52.226Z,5.18
2022-11-26T00:15:52.185Z,5.18
2022-11-26T00:16:52.283Z,5.18
2022-11-26T00:17:52.192Z,5.18
2022-11-26T00:18:52.198Z,5.18
2022-11-26T00:19:52.166Z,5.20
2022-11-26T00:20:52.185Z,5.21
2022-11-26T00:21:52.157Z,5.23
2022-11-26T00:22:52.158Z,5.25
2022-11-26T00:23:52.106Z,5.26
2022-11-26T00:24:52.135Z,5.29
2022-11-26T00:25:52.120Z,5.29
2022-11-26T00:26:52.068Z,5.32
2022-11-26T00:27:55.070Z,5.33
2022-11-26T00:28:52.099Z,5.35
2022-11-26T00:29:52.217Z,5.38
2022-11-26T00:30:52.065Z,5.38
2022-11-26T00:31:52.130Z,5.38
2022-11-26T00:32:52.064Z,5.41
2022-11-26T00:33:52.032Z,5.43
2022-11-26T00:34:52.120Z,5.46
2022-11-26T00:35:51.992Z,5.44
2022-11-26T00:36:51.968Z,5.50
2022-11-26T00:37:51.961Z,5.50
2022-11-26T00:38:51.950Z,5.51
2022-11-26T00:39:51.981Z,5.50
2022-11-26T00:40:51.960Z,5.51
2022-11-26T00:41:51.951Z,5.50
2022-11-26T00:43:00.101Z,5.50
2022-11-26T00:43:51.954Z,5.53
2022-11-26T00:44:51.920Z,5.53
2022-11-26T00:45:51.974Z,5.51
2022-11-26T00:46:51.884Z,5.51
2022-11-26T00:47:51.906Z,5.51
2022-11-26T00:48:51.866Z,5.51
2022-11-26T00:49:51.877Z,5.53
2022-11-26T00:50:51.835Z,5.53
2022-11-26T00:51:51.842Z,5.53
2022-11-26T00:52:51.834Z,5.53
2022-11-26T00:53:51.826Z,5.54
2022-11-26T00:54:51.912Z,5.57
2022-11-26T00:55:51.803Z,5.56
2022-11-26T00:56:51.775Z,5.59
2022-11-26T00:57:54.780Z,5.57
2022-11-26T00:58:51.793Z,5.61
2022-11-26T00:59:51.773Z,5.61
2022-11-26T01:00:51.808Z,5.59
2022-11-26T01:01:51.801Z,5.62
2022-11-26T01:02:51.717Z,5.64
2022-11-26T01:03:51.715Z,5.66
2022-11-26T01:04:51.685Z,5.66
2022-11-26T01:05:51.706Z,5.66
2022-11-26T01:06:51.704Z,5.65
2022-11-26T01:07:51.827Z,5.66
2022-11-26T01:08:51.655Z,5.68
2022-11-26T01:09:51.665Z,5.68
2022-11-26T01:10:51.628Z,5.68
2022-11-26T01:11:54.332Z,5.69
2022-11-26T01:12:54.602Z,5.71
2022-11-26T01:13:51.637Z,5.69
2022-11-26T01:14:51.615Z,5.69
2022-11-26T01:15:51.595Z,5.69
2022-11-26T01:16:51.668Z,5.69
2022-11-26T01:17:51.584Z,5.71
2022-11-26T01:18:51.559Z,5.69
2022-11-26T01:19:51.574Z,5.69
2022-11-26T01:20:51.538Z,5.71
2022-11-26T01:21:51.520Z,5.71
2022-11-26T01:22:51.796Z,5.72
2022-11-26T01:23:51.559Z,5.71
2022-11-26T01:24:51.567Z,5.73
2022-11-26T01:25:51.518Z,5.73
2022-11-26T01:26:51.470Z,5.73
2022-11-26T01:27:54.684Z,5.75
2022-11-26T01:28:51.470Z,5.75
2022-11-26T01:29:51.475Z,5.75
2022-11-26T01:30:51.428Z,5.75
2022-11-26T01:31:51.498Z,5.76
2022-11-26T01:32:51.432Z,5.75
2022-11-26T01:33:51.420Z,5.79
2022-11-26T01:34:51.410Z,5.79
2022-11-26T01:35:51.393Z,5.79
2022-11-26T01:36:51.406Z,5.76
2022-11-26T01:37:51.341Z,5.79
2022-11-26T01:38:51.347Z,5.76
2022-11-26T01:39:51.331Z,5.79
2022-11-26T01:40:51.464Z,5.79
2022-11-26T01:41:51.314Z,5.76
2022-11-26T01:42:54.324Z,5.79
2022-11-26T01:43:51.344Z,5.76
2022-11-26T01:44:51.313Z,5.79
2022-11-26T01:45:51.315Z,5.79
2022-11-26T01:46:51.264Z,5.80
2022-11-26T01:47:51.273Z,5.80
2022-11-26T01:48:51.263Z,5.82
2022-11-26T01:49:51.239Z,5.83
2022-11-26T01:50:51.222Z,5.82
2022-11-26T01:51:51.445Z,5.82
2022-11-26T01:52:51.202Z,5.82
2022-11-26T01:53:51.185Z,5.84
2022-11-26T01:54:51.185Z,5.83
2022-11-26T01:55:51.167Z,5.83
2022-11-26T01:56:51.155Z,5.84
2022-11-26T01:57:54.175Z,5.83
2022-11-26T01:58:51.144Z,5.84
2022-11-26T01:59:51.136Z,5.84
2022-11-26T02:00:51.207Z,5.83
2022-11-26T02:01:51.239Z,5.83
2022-11-26T02:02:51.096Z,5.84
2022-11-26T02:03:51.090Z,5.83
2022-11-26T02:04:51.074Z,5.82
2022-11-26T02:05:51.069Z,5.79
2022-11-26T02:06:51.076Z,5.79
2022-11-26T02:07:51.228Z,5.79
2022-11-26T02:08:51.047Z,5.79
2022-11-26T02:09:51.031Z,5.75
2022-11-26T02:10:51.046Z,5.75
2022-11-26T02:11:51.031Z,5.75
2022-11-26T02:12:54.036Z,5.73
2022-11-26T02:13:51.006Z,5.73
2022-11-26T02:14:50.971Z,5.73
2022-11-26T02:15:50.956Z,5.73
2022-11-26T02:16:50.993Z,5.72
2022-11-26T02:17:50.993Z,5.72
2022-11-26T02:18:50.950Z,5.71
2022-11-26T02:19:50.991Z,5.66
2022-11-26T02:22:33.294Z,5.68
2022-11-26T02:23:31.696Z,5.65
2022-11-26T02:24:31.690Z,5.65
2022-11-26T02:25:31.697Z,5.64
2022-11-26T02:26:31.663Z,5.62
2022-11-26T02:27:31.653Z,5.61
2022-11-26T02:28:31.621Z,5.61
2022-11-26T02:29:31.643Z,5.57
2022-11-26T02:30:31.661Z,5.53
2022-11-26T02:31:31.639Z,5.51
2022-11-26T02:32:31.573Z,5.50
2022-11-26T02:33:31.586Z,5.50
2022-11-26T02:34:37.306Z,5.48
2022-11-26T02:35:34.547Z,5.47
2022-11-26T02:36:31.548Z,5.48
2022-11-26T02:37:31.545Z,5.46
2022-11-26T02:38:31.539Z,5.47
2022-11-26T02:39:31.535Z,5.46
2022-11-26T02:40:31.520Z,5.46
2022-11-26T02:41:31.658Z,5.47
2022-11-26T02:42:31.546Z,5.46
2022-11-26T02:43:31.491Z,5.46
2022-11-26T02:44:31.477Z,5.47
2022-11-26T02:45:31.480Z,5.47
2022-11-26T02:46:31.431Z,5.47
2022-11-26T02:47:31.427Z,5.48
2022-11-26T02:48:31.469Z,5.50
2022-11-26T02:49:31.429Z,5.51
2022-11-26T02:50:34.388Z,5.53
2022-11-26T02:51:34.824Z,5.54
2022-11-26T02:52:31.399Z,5.54
2022-11-26T02:53:31.361Z,5.56
2022-11-26T02:54:31.350Z,5.56
2022-11-26T02:55:31.340Z,5.56
2022-11-26T02:56:31.351Z,5.57
2022-11-26T02:57:31.330Z,5.59
2022-11-26T02:58:31.301Z,5.61
2022-11-26T02:59:31.331Z,5.56
2022-11-26T03:00:31.286Z,5.54
2022-11-26T03:01:31.328Z,5.57
2022-11-26T03:02:31.270Z,5.54
2022-11-26T03:03:31.348Z,5.56
2022-11-26T03:04:31.270Z,5.54
2022-11-26T03:05:34.260Z,5.56
2022-11-26T03:06:31.250Z,5.56
2022-11-26T03:07:32.240Z,5.56
2022-11-26T03:08:31.225Z,5.56
2022-11-26T03:09:31.226Z,5.56
2022-11-26T03:10:31.213Z,5.57
2022-11-26T03:11:31.211Z,5.56
2022-11-26T03:12:31.197Z,5.57
2022-11-26T03:13:31.170Z,5.59
2022-11-26T03:14:31.176Z,5.59
2022-11-26T03:15:31.186Z,5.59
2022-11-26T03:16:31.171Z,5.61
2022-11-26T03:17:31.116Z,5.59
2022-11-26T03:18:31.128Z,5.57
2022-11-26T03:19:31.092Z,5.57
2022-11-26T03:20:34.114Z,5.61
2022-11-26T03:21:31.094Z,5.61
2022-11-26T03:22:31.073Z,5.62
2022-11-26T03:23:31.075Z,5.64
2022-11-26T03:24:31.045Z,5.65
2022-11-26T03:25:31.081Z,5.68
2022-11-26T03:26:31.017Z,5.69
2022-11-26T03:27:31.035Z,5.71
2022-11-26T03:28:31.015Z,5.71
2022-11-26T03:29:30.989Z,5.73
2022-11-26T03:30:31.101Z,5.72
2022-11-26T03:31:31.016Z,5.75
2022-11-26T03:32:31.000Z,5.75
2022-11-26T03:33:30.955Z,5.76
2022-11-26T03:34:30.938Z,5.76
2022-11-26T03:35:33.957Z,5.76
2022-11-26T03:36:31.880Z,5.79
2022-11-26T03:37:30.920Z,5.76
2022-11-26T03:38:30.929Z,5.76
2022-11-26T03:39:30.889Z,5.79
2022-11-26T03:40:30.929Z,5.82
2022-11-26T03:41:30.860Z,5.80
2022-11-26T03:42:30.990Z,5.80
2022-11-26T03:43:30.879Z,5.80
2022-11-26T03:44:30.869Z,5.80
2022-11-26T03:45:30.867Z,5.82
2022-11-26T03:46:30.814Z,5.82
2022-11-26T03:47:30.820Z,5.80
2022-11-26T03:48:30.804Z,5.82
2022-11-26T03:49:30.783Z,5.80
2022-11-26T03:50:33.805Z,5.80
2022-11-26T03:51:30.809Z,5.80
2022-11-26T03:52:30.802Z,5.80
2022-11-26T03:53:30.733Z,5.82
2022-11-26T03:54:30.728Z,5.80
2022-11-26T03:55:30.723Z,5.79
2022-11-26T03:56:30.730Z,5.79
2022-11-26T03:57:30.700Z,5.76
2022-11-26T03:58:30.721Z,5.76
2022-11-26T03:59:30.742Z,5.73
2022-11-26T04:00:30.713Z,5.73
2022-11-26T04:01:30.766Z,5.72
2022-11-26T04:02:30.671Z,5.72
2022-11-26T04:03:30.713Z,5.73
2022-11-26T04:04:30.633Z,5.72
2022-11-26T04:05:33.645Z,5.71
2022-11-26T04:06:30.646Z,5.69
2022-11-26T04:07:30.690Z,5.69
2022-11-26T04:08:30.616Z,5.68
2022-11-26T04:09:30.604Z,5.68
2022-11-26T04:10:30.637Z,5.68
2022-11-26T04:11:30.573Z,5.66
2022-11-26T04:12:30.553Z,5.66
2022-11-26T04:13:30.536Z,5.65
2022-11-26T04:14:30.555Z,5.65
2022-11-26T04:15:30.539Z,5.66
2022-11-26T04:16:30.535Z,5.64
2022-11-26T04:17:30.517Z,5.65
2022-11-26T04:18:30.488Z,5.65
2022-11-26T04:19:30.516Z,5.64
2022-11-26T04:20:33.486Z,5.64
2022-11-26T04:21:30.575Z,5.64
2022-11-26T04:22:30.475Z,5.65
2022-11-26T04:23:30.457Z,5.62
2022-11-26T04:24:30.449Z,5.62
2022-11-26T04:25:30.430Z,5.64
2022-11-26T04:26:30.428Z,5.64
2022-11-26T04:27:30.418Z,5.64
2022-11-26T04:28:30.407Z,5.64
2022-11-26T04:29:30.404Z,5.61
2022-11-26T04:30:30.390Z,5.62
2022-11-26T04:31:30.389Z,5.61
2022-11-26T04:32:30.343Z,5.59
2022-11-26T04:33:30.333Z,5.57
2022-11-26T04:34:30.376Z,5.57
2022-11-26T04:35:33.309Z,5.56
2022-11-26T04:36:30.309Z,5.54
2022-11-26T04:37:30.299Z,5.53
2022-11-26T04:38:30.272Z,5.51
2022-11-26T04:39:30.290Z,5.50
2022-11-26T04:40:30.279Z,5.48
2022-11-26T04:41:30.231Z,5.46
2022-11-26T04:42:30.234Z,5.43
2022-11-26T04:43:30.249Z,5.39
2022-11-26T04:44:30.231Z,5.36
2022-11-26T04:45:30.265Z,5.33
2022-11-26T04:46:30.219Z,5.32
2022-11-26T04:47:31.149Z,5.30
2022-11-26T04:48:31.163Z,5.28
2022-11-26T04:49:30.162Z,5.25
2022-11-26T04:50:33.171Z,5.23
2022-11-26T04:51:30.151Z,5.20
2022-11-26T04:52:30.130Z,5.17
2022-11-26T04:53:30.142Z,5.15
2022-11-26T04:54:30.108Z,5.12
2022-11-26T04:55:30.140Z,5.10
2022-11-26T04:56:30.122Z,5.07
2022-11-26T04:57:30.084Z,5.05
2022-11-26T04:58:30.114Z,5.00
2022-11-26T04:59:30.084Z,4.97
2022-11-26T05:00:30.044Z,4.94
2022-11-26T05:01:30.121Z,4.90
2022-11-26T05:02:30.101Z,4.86
2022-11-26T05:03:30.042Z,4.84
2022-11-26T05:04:30.002Z,4.80
2022-11-26T05:05:32.993Z,4.75
2022-11-26T05:06:30.007Z,4.74
2022-11-26T05:07:30.021Z,4.68
2022-11-26T05:08:29.964Z,4.66
2022-11-26T05:09:29.957Z,4.63
2022-11-26T05:10:29.963Z,4.58
2022-11-26T05:11:29.949Z,4.56
2022-11-26T05:12:29.948Z,4.53
2022-11-26T05:13:29.927Z,4.50
2022-11-26T05:14:29.931Z,4.49
2022-11-26T05:15:29.917Z,4.44
2022-11-26T05:16:29.972Z,4.42
2022-11-26T05:17:29.920Z,4.40
2022-11-26T05:18:29.864Z,4.37
2022-11-26T05:19:29.856Z,4.34
2022-11-26T05:20:32.858Z,4.31
2022-11-26T05:21:29.863Z,4.31
2022-11-26T05:22:29.891Z,4.28
2022-11-26T05:23:29.815Z,4.26
2022-11-26T05:24:29.797Z,4.24
2022-11-26T05:25:29.778Z,4.23
2022-11-26T05:26:29.777Z,4.20
2022-11-26T05:27:29.772Z,4.16
2022-11-26T05:28:29.765Z,4.14
2022-11-26T05:29:29.777Z,4.10
2022-11-26T05:30:29.767Z,4.08
2022-11-26T05:31:29.804Z,4.06
2022-11-26T05:32:29.719Z,4.02
2022-11-26T05:33:29.701Z,4.02
2022-11-26T05:34:29.725Z,4.01
2022-11-26T05:35:32.700Z,3.96
2022-11-26T05:36:29.738Z,3.94
2022-11-26T05:37:29.689Z,3.92
2022-11-26T05:38:29.685Z,3.87
2022-11-26T05:39:29.640Z,3.81
2022-11-26T05:40:29.651Z,3.80
2022-11-26T05:41:29.778Z,3.78
2022-11-26T05:42:29.634Z,3.76
2022-11-26T05:43:29.631Z,3.73
2022-11-26T05:44:29.592Z,3.70
2022-11-26T05:45:29.638Z,3.70
2022-11-26T05:46:29.597Z,3.68
2022-11-26T05:47:29.563Z,3.63
2022-11-26T05:49:51.855Z,3.66
2022-11-26T05:50:54.567Z,3.65
2022-11-26T05:51:52.734Z,3.65
2022-11-26T05:52:51.763Z,3.66
2022-11-26T05:53:51.751Z,3.68
2022-11-26T05:54:51.702Z,3.68
2022-11-26T05:55:51.747Z,3.65
2022-11-26T05:56:56.888Z,3.62
2022-11-26T05:57:51.731Z,3.58
2022-11-26T05:58:51.677Z,3.55
2022-11-26T05:59:51.667Z,3.58
2022-11-26T06:00:51.684Z,3.55
2022-11-26T06:01:51.688Z,3.58
2022-11-26T06:02:54.837Z,3.56
2022-11-26T06:03:51.728Z,3.58
2022-11-26T06:04:51.607Z,3.59
2022-11-26T06:05:51.608Z,3.60
2022-11-26T06:06:51.622Z,3.63
2022-11-26T06:07:51.664Z,3.65
2022-11-26T06:08:51.576Z,3.68
2022-11-26T06:09:51.585Z,3.68
2022-11-26T06:10:51.524Z,3.70
2022-11-26T06:11:51.489Z,3.70
2022-11-26T06:12:51.535Z,3.73
2022-11-26T06:13:51.548Z,3.74
2022-11-26T06:14:51.518Z,3.73
2022-11-26T06:15:51.457Z,3.73
2022-11-26T06:16:51.567Z,3.73
2022-11-26T06:17:54.429Z,3.76
2022-11-26T06:18:51.434Z,3.76
2022-11-26T06:19:51.434Z,3.78
2022-11-26T06:20:51.388Z,3.77
2022-11-26T06:21:51.386Z,3.78
2022-11-26T06:22:51.488Z,3.80
2022-11-26T06:23:57.551Z,3.80
2022-11-26T06:24:51.360Z,3.84
2022-11-26T06:25:51.371Z,3.84
2022-11-26T06:26:51.366Z,3.87
2022-11-26T06:27:51.387Z,3.91
2022-11-26T06:28:51.333Z,3.91
2022-11-26T06:29:51.348Z,3.94
2022-11-26T06:30:51.290Z,3.92
2022-11-26T06:31:51.350Z,3.94
2022-11-26T06:32:54.297Z,3.92
2022-11-26T06:33:51.421Z,3.92
2022-11-26T06:34:54.172Z,3.91
2022-11-26T06:35:51.251Z,3.88
2022-11-26T06:36:51.258Z,3.84
2022-11-26T06:37:51.392Z,3.81
2022-11-26T06:38:51.246Z,3.81
2022-11-26T06:39:51.391Z,3.81
2022-11-26T06:40:51.290Z,3.78
2022-11-26T06:41:51.320Z,3.78
2022-11-26T06:42:51.229Z,3.80
2022-11-26T06:43:51.180Z,3.80
2022-11-26T06:44:51.141Z,3.80
2022-11-26T06:45:51.188Z,3.81
2022-11-26T06:46:51.135Z,3.81
2022-11-26T06:47:54.182Z,3.81
2022-11-26T06:48:51.153Z,3.83
2022-11-26T06:49:52.081Z,3.84
2022-11-26T06:50:51.094Z,3.84
2022-11-26T06:51:51.110Z,3.86
2022-11-26T06:52:51.096Z,3.87
2022-11-26T06:53:51.084Z,3.88
2022-11-26T06:54:51.053Z,3.88
2022-11-26T06:55:51.044Z,3.88
2022-11-26T06:56:51.021Z,3.87
2022-11-26T06:57:51.011Z,3.87
2022-11-26T06:58:51.033Z,3.86
2022-11-26T06:59:51.015Z,3.86
2022-11-26T07:00:51.019Z,3.84
2022-11-26T07:01:51.103Z,3.83
2022-11-26T07:02:54.177Z,3.83
2022-11-26T07:03:51.005Z,3.83
2022-11-26T07:04:50.982Z,3.80
2022-11-26T07:05:50.952Z,3.78
2022-11-26T07:06:50.947Z,3.78
2022-11-26T07:07:51.101Z,3.77
2022-11-26T07:08:50.898Z,3.77
2022-11-26T07:09:50.944Z,3.74
2022-11-26T07:10:51.870Z,3.74
2022-11-26T07:11:50.937Z,3.76
2022-11-26T07:12:50.887Z,3.74
2022-11-26T07:13:50.858Z,3.74
2022-11-26T07:14:50.846Z,3.74
2022-11-26T07:15:50.894Z,3.73
2022-11-26T07:16:50.847Z,3.70
2022-11-26T07:17:53.848Z,3.70
2022-11-26T07:18:50.845Z,3.69
2022-11-26T07:19:51.826Z,3.65
2022-11-26T07:20:50.790Z,3.62
2022-11-26T07:21:50.768Z,3.62
2022-11-26T07:22:50.767Z,3.60
2022-11-26T07:23:50.749Z,3.62
2022-11-26T07:24:50.766Z,3.60
2022-11-26T07:25:50.757Z,3.58
2022-11-26T07:26:50.746Z,3.58
2022-11-26T07:27:50.735Z,3.56
2022-11-26T07:28:50.693Z,3.55
2022-11-26T07:29:50.684Z,3.56
2022-11-26T07:30:50.706Z,3.56
2022-11-26T07:31:50.691Z,3.55
2022-11-26T07:32:54.663Z,3.55
2022-11-26T07:33:50.717Z,3.55
2022-11-26T07:34:50.629Z,3.55
2022-11-26T07:35:50.627Z,3.56
2022-11-26T07:36:55.254Z,3.58
2022-11-26T07:37:50.598Z,3.58
2022-11-26T07:38:50.608Z,3.58
2022-11-26T07:39:50.609Z,3.58
2022-11-26T07:40:50.599Z,3.60
2022-11-26T07:41:50.593Z,3.60
2022-11-26T07:42:53.331Z,3.62
2022-11-26T07:43:50.565Z,3.65
2022-11-26T07:44:50.586Z,3.66
2022-11-26T07:45:50.566Z,3.74
2022-11-26T07:46:50.529Z,3.81
2022-11-26T07:47:53.531Z,3.87
2022-11-26T07:48:50.500Z,3.98
2022-11-26T07:49:50.480Z,4.44
2022-11-26T07:50:50.501Z,5.04
2022-11-26T07:51:50.467Z,5.53
2022-11-26T07:52:50.448Z,5.94
2022-11-26T07:53:50.463Z,6.36
2022-11-26T07:54:50.455Z,6.74
2022-11-26T07:55:50.440Z,7.06
2022-11-26T07:56:50.482Z,7.29
2022-11-26T07:57:50.398Z,7.47
2022-11-26T07:58:50.453Z,7.43
2022-11-26T07:59:50.381Z,7.21
2022-11-26T08:00:54.432Z,7.03
2022-11-26T08:01:50.439Z,6.89
2022-11-26T08:02:53.458Z,6.77
2022-11-26T08:03:50.392Z,6.67
2022-11-26T08:04:50.344Z,6.56
2022-11-26T08:05:50.346Z,6.48
2022-11-26T08:06:50.324Z,6.42
2022-11-26T08:07:50.421Z,6.39
2022-11-26T08:08:50.343Z,6.38
2022-11-26T08:09:50.309Z,6.31
2022-11-26T08:10:50.267Z,6.31
2022-11-26T08:11:50.284Z,6.33
2022-11-26T08:12:50.275Z,6.38
2022-11-26T08:13:50.365Z,6.48
2022-11-26T08:14:50.264Z,6.57
2022-11-26T08:15:50.213Z,6.62
2022-11-26T08:16:50.302Z,6.66
2022-11-26T08:17:53.197Z,6.69
2022-11-26T08:18:50.265Z,6.64
2022-11-26T08:19:50.206Z,6.66
2022-11-26T08:20:50.224Z,6.66
2022-11-26T08:21:50.208Z,6.63
2022-11-26T08:22:50.144Z,6.63
2022-11-26T08:23:50.127Z,6.64
2022-11-26T08:24:50.146Z,6.64
2022-11-26T08:26:14.052Z,6.63
2022-11-26T08:26:51.116Z,6.63
2022-11-26T08:27:50.118Z,6.66
2022-11-26T08:28:50.116Z,6.66
2022-11-26T08:29:50.097Z,6.64
2022-11-26T08:30:50.247Z,6.66
2022-11-26T08:31:50.142Z,6.69
2022-11-26T08:32:53.062Z,6.67
2022-11-26T08:33:50.041Z,6.69
2022-11-26T08:34:50.020Z,6.69
2022-11-26T08:36:06.000Z,6.70
2022-11-26T08:36:51.032Z,6.72
2022-11-26T08:37:49.978Z,6.75
2022-11-26T08:38:49.977Z,6.75
2022-11-26T08:39:49.970Z,6.79
2022-11-26T08:40:49.979Z,6.79
2022-11-26T08:41:52.338Z,6.82
2022-11-26T08:42:50.003Z,6.81
2022-11-26T08:44:06.972Z,6.79
2022-11-26T08:44:50.942Z,6.79
2022-11-26T08:45:49.934Z,6.79
2022-11-26T08:46:49.885Z,6.81
2022-11-26T08:47:52.930Z,6.81
2022-11-26T08:48:49.888Z,6.85
2022-11-26T08:49:49.860Z,6.87
2022-11-26T08:50:50.011Z,6.88
2022-11-26T08:51:49.846Z,6.89
2022-11-26T08:52:49.832Z,6.92
2022-11-26T08:53:49.864Z,6.97
2022-11-26T08:54:50.069Z,6.97
2022-11-26T08:56:00.243Z,7.00
2022-11-26T08:56:49.785Z,7.05
2022-11-26T08:57:49.812Z,7.10
2022-11-26T08:58:49.794Z,7.13
2022-11-26T08:59:49.784Z,7.18
2022-11-26T09:00:49.785Z,7.21
2022-11-26T09:01:49.792Z,7.25
2022-11-26T09:02:52.752Z,7.32
2022-11-26T09:03:49.734Z,7.36
2022-11-26T09:04:49.703Z,7.40
2022-11-26T09:05:49.695Z,7.42
2022-11-26T09:06:49.716Z,7.48
2022-11-26T09:07:49.771Z,7.53
2022-11-26T09:09:49.657Z,7.58
2022-11-26T09:10:49.664Z,7.61
2022-11-26T09:11:49.693Z,7.75
2022-11-26T09:12:49.625Z,7.91
2022-11-26T09:13:49.645Z,8.05
2022-11-26T09:14:49.654Z,8.10
2022-11-26T09:15:49.608Z,8.06
2022-11-26T09:16:49.620Z,8.08
2022-11-26T09:17:52.753Z,8.01
2022-11-26T09:18:49.608Z,8.01
2022-11-26T09:19:49.566Z,8.00
2022-11-26T09:20:52.895Z,7.97
2022-11-26T09:21:49.525Z,7.97
2022-11-26T09:22:49.516Z,7.97
2022-11-26T09:23:49.812Z,8.00
2022-11-26T09:24:49.769Z,7.97
2022-11-26T09:25:52.518Z,7.93
2022-11-26T09:27:07.541Z,7.91
2022-11-26T09:27:51.665Z,7.90
2022-11-26T09:28:49.967Z,7.90
2022-11-26T09:29:49.728Z,7.91
2022-11-26T09:30:52.898Z,7.87
2022-11-26T09:32:21.984Z,7.82
2022-11-26T09:32:55.032Z,7.83
2022-11-26T09:33:54.010Z,7.82
2022-11-26T09:34:51.385Z,7.85
2022-11-26T09:35:49.685Z,7.83
2022-11-26T09:36:53.612Z,7.85
2022-11-26T09:37:51.675Z,7.85
2022-11-26T09:38:51.013Z,7.85
2022-11-26T09:39:50.963Z,7.88
2022-11-26T09:40:49.589Z,7.91
2022-11-26T09:41:51.470Z,7.98
2022-11-26T09:42:49.854Z,8.08
2022-11-26T09:43:53.559Z,8.20
2022-11-26T09:44:49.629Z,8.34
2022-11-26T09:45:50.337Z,8.41
2022-11-26T09:47:10.571Z,8.38
2022-11-26T09:47:53.291Z,8.41
2022-11-26T09:48:49.262Z,8.42
2022-11-26T09:49:49.271Z,8.34
2022-11-26T09:50:49.224Z,8.36
2022-11-26T09:51:49.305Z,8.34
2022-11-26T09:52:49.232Z,8.37
2022-11-26T09:53:49.222Z,8.38
2022-11-26T09:54:49.273Z,8.41
2022-11-26T09:55:49.194Z,8.42
2022-11-26T09:56:49.162Z,8.45
2022-11-26T09:57:49.181Z,8.49
2022-11-26T09:58:49.164Z,8.53
2022-11-26T09:59:49.140Z,8.55
2022-11-26T10:00:49.208Z,8.55
2022-11-26T10:01:49.172Z,8.49
2022-11-26T10:02:52.134Z,8.45
2022-11-26T10:03:49.107Z,8.49
2022-11-26T10:04:49.109Z,8.45
2022-11-26T10:05:49.098Z,8.42
2022-11-26T10:06:49.088Z,8.41
2022-11-26T10:07:49.094Z,8.38
2022-11-26T10:08:49.054Z,8.36
2022-11-26T10:09:49.057Z,8.37
2022-11-26T10:10:49.166Z,8.37
2022-11-26T10:11:49.009Z,8.37
2022-11-26T10:13:16.742Z,8.33
2022-11-26T10:13:50.016Z,8.28
2022-11-26T10:14:49.165Z,8.28
2022-11-26T10:15:48.998Z,8.26
2022-11-26T10:16:49.037Z,8.26
2022-11-26T10:17:51.948Z,8.27
2022-11-26T10:18:48.969Z,8.24
2022-11-26T10:19:48.951Z,8.24
2022-11-26T10:20:48.939Z,8.27
2022-11-26T10:22:04.294Z,8.26
2022-11-26T10:22:54.050Z,8.26
2022-11-26T10:23:48.910Z,8.26
2022-11-26T10:24:48.899Z,8.30
2022-11-26T10:25:48.900Z,8.33
2022-11-26T10:26:48.854Z,8.34
2022-11-26T10:27:48.882Z,8.34
2022-11-26T10:28:48.873Z,8.37
2022-11-26T10:29:48.822Z,8.38
2022-11-26T10:30:49.092Z,8.46
2022-11-26T10:31:48.854Z,8.49
2022-11-26T10:32:51.819Z,8.48
2022-11-26T10:33:48.820Z,8.56
2022-11-26T10:34:48.795Z,8.55
2022-11-26T10:35:48.763Z,8.53
2022-11-26T10:36:48.759Z,8.53
2022-11-26T10:37:48.744Z,8.64
2022-11-26T10:38:48.771Z,8.63
2022-11-26T10:39:48.745Z,8.60
2022-11-26T10:40:49.712Z,8.60
2022-11-26T10:41:48.704Z,8.55
2022-11-26T10:42:48.683Z,8.52
2022-11-26T10:43:48.672Z,8.52
2022-11-26T10:44:48.664Z,8.48
2022-11-26T10:45:48.692Z,8.49
2022-11-26T10:46:48.906Z,8.46
2022-11-26T10:47:51.637Z,8.46
2022-11-26T10:48:48.664Z,8.44
2022-11-26T10:49:48.614Z,8.37
2022-11-26T10:50:48.603Z,8.30
2022-11-26T10:51:48.615Z,8.23
2022-11-26T10:52:48.584Z,8.26
2022-11-26T10:53:48.579Z,8.19
2022-11-26T10:54:48.574Z,8.31
2022-11-26T10:55:48.575Z,8.45
2022-11-26T10:56:48.571Z,8.38
2022-11-26T10:57:48.591Z,8.34
2022-11-26T10:58:48.528Z,8.30
2022-11-26T10:59:48.539Z,8.27
2022-11-26T11:00:48.620Z,8.20
2022-11-26T11:01:52.892Z,8.16
2022-11-26T11:02:51.540Z,8.12
2022-11-26T11:04:49.487Z,8.09
2022-11-26T11:05:48.480Z,8.08
2022-11-26T11:06:48.439Z,8.06
2022-11-26T11:07:48.559Z,8.03
2022-11-26T11:08:48.426Z,8.01
2022-11-26T11:09:48.407Z,8.00
2022-11-26T11:10:48.431Z,7.97
2022-11-26T11:11:48.403Z,8.12
2022-11-26T11:12:48.370Z,8.26
2022-11-26T11:13:48.396Z,8.38
2022-11-26T11:14:48.583Z,8.52
2022-11-26T11:15:48.402Z,8.60
2022-11-26T11:16:48.382Z,8.69
2022-11-26T11:17:51.351Z,8.73
2022-11-26T11:18:48.333Z,8.81
2022-11-26T11:19:48.330Z,8.82
2022-11-26T11:20:48.431Z,8.85
2022-11-26T11:21:48.734Z,8.88
2022-11-26T11:22:48.307Z,8.97
2022-11-26T11:24:49.281Z,9.08
2022-11-26T11:25:48.276Z,9.16
2022-11-26T11:26:48.293Z,9.18
2022-11-26T11:27:48.234Z,9.21
2022-11-26T11:29:48.214Z,9.26
2022-11-26T11:30:48.194Z,9.31
2022-11-26T11:31:48.322Z,9.34
2022-11-26T11:32:51.163Z,9.37
2022-11-26T11:33:48.203Z,9.37
2022-11-26T11:34:48.170Z,9.41
2022-11-26T11:35:48.134Z,9.46
2022-11-26T11:36:48.125Z,9.50
2022-11-26T11:37:48.174Z,9.54
2022-11-26T11:38:48.136Z,9.50
2022-11-26T11:39:48.088Z,9.55
2022-11-26T11:40:48.235Z,9.46
2022-11-26T11:42:48.116Z,9.64
2022-11-26T11:43:48.107Z,9.62
2022-11-26T11:44:48.077Z,9.59
2022-11-26T11:45:52.993Z,9.54
2022-11-26T11:46:48.075Z,9.58
2022-11-26T11:47:51.103Z,9.64
2022-11-26T11:48:48.050Z,9.55
2022-11-26T11:49:48.082Z,9.40
2022-11-26T11:50:48.009Z,9.28
2022-11-26T11:51:47.959Z,9.16
2022-11-26T11:52:47.953Z,9.04
2022-11-26T11:53:47.969Z,8.99
2022-11-26T11:54:47.937Z,8.94
2022-11-26T11:55:47.961Z,8.94
2022-11-26T11:56:47.942Z,9.02
2022-11-26T11:57:47.926Z,9.16
2022-11-26T11:58:47.896Z,9.19
2022-11-26T11:59:47.904Z,9.18
2022-11-26T12:00:47.903Z,9.13
2022-11-26T12:01:47.926Z,9.10
2022-11-26T12:02:50.889Z,9.11
2022-11-26T12:03:47.850Z,9.34
2022-11-26T12:04:47.882Z,9.50
2022-11-26T12:05:47.819Z,9.64
2022-11-26T12:06:47.833Z,9.79
2022-11-26T12:07:47.970Z,9.83
2022-11-26T12:08:47.850Z,9.91
2022-11-26T12:09:47.806Z,9.92
2022-11-26T12:10:47.811Z,9.89
2022-11-26T12:11:47.792Z,9.94
2022-11-26T12:12:47.821Z,9.99
2022-11-26T12:13:47.783Z,10.15
2022-11-26T12:14:47.892Z,10.25
2022-11-26T12:15:47.709Z,10.35
2022-11-26T12:16:47.740Z,10.40
2022-11-26T12:17:50.696Z,10.56
2022-11-26T12:18:47.725Z,10.67
2022-11-26T12:19:47.674Z,10.75
2022-11-26T12:20:47.744Z,10.81
2022-11-26T12:21:47.695Z,10.82
2022-11-26T12:22:47.670Z,10.79
2022-11-26T12:23:47.637Z,10.69
2022-11-26T12:25:47.609Z,10.82
2022-11-26T12:26:47.627Z,10.89
2022-11-26T12:27:47.600Z,10.96
2022-11-26T12:28:51.358Z,10.86
2022-11-26T12:29:47.598Z,10.92
2022-11-26T12:30:48.512Z,11.00
2022-11-26T12:31:47.667Z,11.07
2022-11-26T12:32:50.556Z,11.14
2022-11-26T12:33:47.571Z,11.19
2022-11-26T12:34:47.546Z,11.26
2022-11-26T12:35:47.501Z,11.30
2022-11-26T12:36:47.589Z,11.33
2022-11-26T12:37:47.540Z,11.37
2022-11-26T12:38:47.498Z,11.45
2022-11-26T12:39:53.350Z,11.48
2022-11-26T12:41:47.440Z,11.60
2022-11-26T12:42:47.480Z,11.63
2022-11-26T12:43:47.443Z,11.72
2022-11-26T12:44:47.410Z,11.78
2022-11-26T12:45:47.490Z,11.80
2022-11-26T12:46:47.412Z,11.91
2022-11-26T12:48:47.402Z,12.04
2022-11-26T12:49:47.362Z,12.10
2022-11-26T12:50:47.351Z,12.24
2022-11-26T12:51:47.373Z,12.29
2022-11-26T12:52:47.346Z,12.22
2022-11-26T12:53:47.340Z,12.25
2022-11-26T12:54:47.324Z,12.29
2022-11-26T12:55:47.282Z,12.27
2022-11-26T12:56:47.304Z,12.35
2022-11-26T12:57:47.286Z,12.40
2022-11-26T12:58:47.258Z,12.42
2022-11-26T12:59:47.273Z,12.46
2022-11-26T13:01:47.253Z,12.36
2022-11-26T13:02:50.279Z,12.39
2022-11-26T13:03:47.260Z,12.36
2022-11-26T13:04:48.215Z,12.31
2022-11-26T13:05:51.226Z,12.31
2022-11-26T13:06:47.201Z,12.36
2022-11-26T13:07:47.238Z,12.43
2022-11-26T13:08:47.154Z,12.45
2022-11-26T13:09:47.174Z,12.35
2022-11-26T13:10:47.169Z,12.29
2022-11-26T13:11:47.145Z,12.13
2022-11-26T13:12:47.118Z,12.03
2022-11-26T13:13:47.129Z,12.02
2022-11-26T13:14:47.146Z,12.03
2022-11-26T13:16:47.130Z,12.13
2022-11-26T13:17:50.279Z,12.07
2022-11-26T13:18:47.072Z,12.02
2022-11-26T13:19:47.073Z,12.00
2022-11-26T13:20:47.029Z,11.99
2022-11-26T13:21:47.039Z,11.80
2022-11-26T13:22:47.005Z,11.63
2022-11-26T13:23:47.020Z,11.52
2022-11-26T13:24:47.010Z,11.44
2022-11-26T13:25:47.001Z,11.33
2022-11-26T13:26:46.991Z,11.26
2022-11-26T13:27:46.952Z,11.17
2022-11-26T13:28:46.964Z,11.11
2022-11-26T13:29:46.959Z,11.05